sensor_id;sensor_type;location;lat;lon;timestamp;temperature;humidity
21612;DHT22;47005;52.292;13.452;2023-09-07T00:00:46;18.60;99.90
21612;DHT22;47005;52.292;13.452;2023-09-07T00:03:13;18.50;99.90
21612;DHT22;47005;52.292;13.452;2023-09-07T00:05:39;18.50;99.90
21612;DHT22;47005;52.292;13.452;2023-09-07T00:08:05;18.50;99.90
21612;DHT22;47005;52.292;13.452;2023-09-07T00:10:32;18.50;99.90
21612;DHT22;47005;52.292;13.452;2023-09-07T00:13:01;18.40;99.90
21612;DHT22;47005;52.292;13.452;2023-09-07T00:15:28;18.40;99.90
21612;DHT22;47005;52.292;13.452;2023-09-07T00:17:55;18.50;99.90
21612;DHT22;47005;52.292;13.452;2023-09-07T00:20:21;18.40;99.90
21612;DHT22;47005;52.292;13.452;2023-09-07T00:22:47;18.40;99.90
21612;DHT22;47005;52.292;13.452;2023-09-07T00:25:13;18.40;99.90
21612;DHT22;47005;52.292;13.452;2023-09-07T00:27:39;18.30;99.90
21612;DHT22;47005;52.292;13.452;2023-09-07T00:30:05;18.30;99.90
21612;DHT22;47005;52.292;13.452;2023-09-07T00:32:35;18.30;99.90
21612;DHT22;47005;52.292;13.452;2023-09-07T00:35:01;18.30;99.90
21612;DHT22;47005;52.292;13.452;2023-09-07T00:37:27;18.30;99.90
21612;DHT22;47005;52.292;13.452;2023-09-07T00:39:53;18.20;99.90
21612;DHT22;47005;52.292;13.452;2023-09-07T00:42:18;18.20;99.90
21612;DHT22;47005;52.292;13.452;2023-09-07T00:44:44;18.20;99.90
21612;DHT22;47005;52.292;13.452;2023-09-07T00:47:10;18.20;99.90
21612;DHT22;47005;52.292;13.452;2023-09-07T00:49:37;18.20;99.90
21612;DHT22;47005;52.292;13.452;2023-09-07T00:52:04;18.20;99.90
21612;DHT22;47005;52.292;13.452;2023-09-07T00:54:30;18.10;99.90
21612;DHT22;47005;52.292;13.452;2023-09-07T00:56:56;18.10;99.90
21612;DHT22;47005;52.292;13.452;2023-09-07T00:59:22;18.10;99.90
21612;DHT22;47005;52.292;13.452;2023-09-07T01:01:48;18.00;99.90
21612;DHT22;47005;52.292;13.452;2023-09-07T01:04:14;18.00;99.90
21612;DHT22;47005;52.292;13.452;2023-09-07T01:06:47;18.00;99.90
21612;DHT22;47005;52.292;13.452;2023-09-07T01:09:19;18.00;99.90
21612;DHT22;47005;52.292;13.452;2023-09-07T01:11:44;17.90;99.90
21612;DHT22;47005;52.292;13.452;2023-09-07T01:14:10;17.90;99.90
21612;DHT22;47005;52.292;13.452;2023-09-07T01:16:36;17.90;99.90
21612;DHT22;47005;52.292;13.452;2023-09-07T01:19:06;17.80;99.90
21612;DHT22;47005;52.292;13.452;2023-09-07T01:21:34;17.80;99.90
21612;DHT22;47005;52.292;13.452;2023-09-07T01:24:09;17.80;99.90
21612;DHT22;47005;52.292;13.452;2023-09-07T01:26:36;17.80;99.90
21612;DHT22;47005;52.292;13.452;2023-09-07T01:29:06;17.80;99.90
21612;DHT22;47005;52.292;13.452;2023-09-07T01:31:36;17.70;99.90
21612;DHT22;47005;52.292;13.452;2023-09-07T01:34:03;17.70;99.90
21612;DHT22;47005;52.292;13.452;2023-09-07T01:36:28;17.70;99.90
21612;DHT22;47005;52.292;13.452;2023-09-07T01:38:54;17.60;99.90
21612;DHT22;47005;52.292;13.452;2023-09-07T01:41:20;17.60;99.90
21612;DHT22;47005;52.292;13.452;2023-09-07T01:43:45;17.60;99.90
21612;DHT22;47005;52.292;13.452;2023-09-07T01:46:11;17.60;99.90
21612;DHT22;47005;52.292;13.452;2023-09-07T01:48:36;17.50;99.90
21612;DHT22;47005;52.292;13.452;2023-09-07T01:51:02;17.50;99.90
21612;DHT22;47005;52.292;13.452;2023-09-07T01:53:28;17.50;99.90
21612;DHT22;47005;52.292;13.452;2023-09-07T01:55:54;17.50;99.90
21612;DHT22;47005;52.292;13.452;2023-09-07T01:58:21;17.50;99.90
21612;DHT22;47005;52.292;13.452;2023-09-07T02:00:47;17.50;99.90
21612;DHT22;47005;52.292;13.452;2023-09-07T02:03:12;17.40;99.90
21612;DHT22;47005;52.292;13.452;2023-09-07T02:05:39;17.40;99.90
21612;DHT22;47005;52.292;13.452;2023-09-07T02:08:04;17.40;99.90
21612;DHT22;47005;52.292;13.452;2023-09-07T02:10:30;17.40;99.90
21612;DHT22;47005;52.292;13.452;2023-09-07T02:12:56;17.40;99.90
21612;DHT22;47005;52.292;13.452;2023-09-07T02:15:23;17.30;99.90
21612;DHT22;47005;52.292;13.452;2023-09-07T02:17:49;17.30;99.90
21612;DHT22;47005;52.292;13.452;2023-09-07T02:20:16;17.30;99.90
21612;DHT22;47005;52.292;13.452;2023-09-07T02:22:42;17.30;99.90
21612;DHT22;47005;52.292;13.452;2023-09-07T02:25:08;17.30;99.90
21612;DHT22;47005;52.292;13.452;2023-09-07T02:27:33;17.20;99.90
21612;DHT22;47005;52.292;13.452;2023-09-07T02:29:59;17.20;99.90
21612;DHT22;47005;52.292;13.452;2023-09-07T02:32:25;17.20;99.90
21612;DHT22;47005;52.292;13.452;2023-09-07T02:34:50;17.20;99.90
21612;DHT22;47005;52.292;13.452;2023-09-07T02:37:16;17.20;99.90
21612;DHT22;47005;52.292;13.452;2023-09-07T02:39:42;17.20;99.90
21612;DHT22;47005;52.292;13.452;2023-09-07T02:42:09;17.10;99.90
21612;DHT22;47005;52.292;13.452;2023-09-07T02:44:34;17.10;99.90
21612;DHT22;47005;52.292;13.452;2023-09-07T02:47:01;17.10;99.90
21612;DHT22;47005;52.292;13.452;2023-09-07T02:49:26;17.10;99.90
21612;DHT22;47005;52.292;13.452;2023-09-07T02:51:52;17.10;99.90
21612;DHT22;47005;52.292;13.452;2023-09-07T02:54:18;17.10;99.90
21612;DHT22;47005;52.292;13.452;2023-09-07T02:56:44;17.10;99.90
21612;DHT22;47005;52.292;13.452;2023-09-07T02:59:09;17.00;99.90
21612;DHT22;47005;52.292;13.452;2023-09-07T03:01:35;17.00;99.90
21612;DHT22;47005;52.292;13.452;2023-09-07T03:04:00;17.00;99.90
21612;DHT22;47005;52.292;13.452;2023-09-07T03:06:26;17.00;99.90
21612;DHT22;47005;52.292;13.452;2023-09-07T03:08:52;17.00;99.90
21612;DHT22;47005;52.292;13.452;2023-09-07T03:11:18;17.00;99.90
21612;DHT22;47005;52.292;13.452;2023-09-07T03:13:43;16.90;99.90
21612;DHT22;47005;52.292;13.452;2023-09-07T03:16:10;16.90;99.90
21612;DHT22;47005;52.292;13.452;2023-09-07T03:18:35;16.90;99.90
21612;DHT22;47005;52.292;13.452;2023-09-07T03:21:02;16.90;99.90
21612;DHT22;47005;52.292;13.452;2023-09-07T03:23:32;16.90;99.90
21612;DHT22;47005;52.292;13.452;2023-09-07T03:25:58;16.90;99.90
21612;DHT22;47005;52.292;13.452;2023-09-07T03:28:24;16.90;99.90
21612;DHT22;47005;52.292;13.452;2023-09-07T03:30:54;16.80;99.90
21612;DHT22;47005;52.292;13.452;2023-09-07T03:33:20;16.80;99.90
21612;DHT22;47005;52.292;13.452;2023-09-07T03:35:45;16.80;99.90
21612;DHT22;47005;52.292;13.452;2023-09-07T03:38:12;16.80;99.90
21612;DHT22;47005;52.292;13.452;2023-09-07T03:40:38;16.80;99.90
21612;DHT22;47005;52.292;13.452;2023-09-07T03:43:04;16.80;99.90
21612;DHT22;47005;52.292;13.452;2023-09-07T03:45:29;16.80;99.90
21612;DHT22;47005;52.292;13.452;2023-09-07T03:47:56;16.80;99.90
21612;DHT22;47005;52.292;13.452;2023-09-07T03:50:21;16.70;99.90
21612;DHT22;47005;52.292;13.452;2023-09-07T03:52:47;16.70;99.90
21612;DHT22;47005;52.292;13.452;2023-09-07T03:55:13;16.70;99.90
21612;DHT22;47005;52.292;13.452;2023-09-07T03:57:39;16.70;99.90
21612;DHT22;47005;52.292;13.452;2023-09-07T04:00:05;16.70;99.90
21612;DHT22;47005;52.292;13.452;2023-09-07T04:02:33;16.70;99.90
21612;DHT22;47005;52.292;13.452;2023-09-07T04:04:59;16.70;99.90
21612;DHT22;47005;52.292;13.452;2023-09-07T04:07:27;16.70;99.90
21612;DHT22;47005;52.292;13.452;2023-09-07T04:09:53;16.70;99.90
21612;DHT22;47005;52.292;13.452;2023-09-07T04:12:18;16.70;99.90
21612;DHT22;47005;52.292;13.452;2023-09-07T04:14:44;16.70;99.90
21612;DHT22;47005;52.292;13.452;2023-09-07T04:17:10;16.60;99.90
21612;DHT22;47005;52.292;13.452;2023-09-07T04:19:36;16.60;99.90
21612;DHT22;47005;52.292;13.452;2023-09-07T04:22:01;16.60;99.90
21612;DHT22;47005;52.292;13.452;2023-09-07T04:24:27;16.60;99.90
21612;DHT22;47005;52.292;13.452;2023-09-07T04:26:53;16.60;99.90
21612;DHT22;47005;52.292;13.452;2023-09-07T04:29:23;16.60;99.90
21612;DHT22;47005;52.292;13.452;2023-09-07T04:31:48;16.50;99.90
21612;DHT22;47005;52.292;13.452;2023-09-07T04:34:14;16.50;99.90
21612;DHT22;47005;52.292;13.452;2023-09-07T04:36:40;16.50;99.90
21612;DHT22;47005;52.292;13.452;2023-09-07T04:39:05;16.50;99.90
21612;DHT22;47005;52.292;13.452;2023-09-07T04:41:31;16.50;99.90
21612;DHT22;47005;52.292;13.452;2023-09-07T04:43:57;16.50;99.90
21612;DHT22;47005;52.292;13.452;2023-09-07T04:46:23;16.50;99.90
21612;DHT22;47005;52.292;13.452;2023-09-07T04:48:49;16.50;99.90
21612;DHT22;47005;52.292;13.452;2023-09-07T04:51:14;16.40;99.90
21612;DHT22;47005;52.292;13.452;2023-09-07T04:53:40;16.40;99.90
21612;DHT22;47005;52.292;13.452;2023-09-07T04:56:07;16.40;99.90
21612;DHT22;47005;52.292;13.452;2023-09-07T04:58:35;16.40;99.90
21612;DHT22;47005;52.292;13.452;2023-09-07T05:01:04;16.40;99.90
21612;DHT22;47005;52.292;13.452;2023-09-07T05:03:30;16.40;99.90
21612;DHT22;47005;52.292;13.452;2023-09-07T05:05:55;16.40;99.90
21612;DHT22;47005;52.292;13.452;2023-09-07T05:08:22;16.40;99.90
21612;DHT22;47005;52.292;13.452;2023-09-07T05:10:54;16.40;99.90
21612;DHT22;47005;52.292;13.452;2023-09-07T05:13:20;16.40;99.90
21612;DHT22;47005;52.292;13.452;2023-09-07T05:15:53;16.40;99.90
21612;DHT22;47005;52.292;13.452;2023-09-07T05:18:19;16.40;99.90
21612;DHT22;47005;52.292;13.452;2023-09-07T05:20:45;16.40;99.90
21612;DHT22;47005;52.292;13.452;2023-09-07T05:23:15;16.40;99.90
21612;DHT22;47005;52.292;13.452;2023-09-07T05:25:45;16.40;99.90
21612;DHT22;47005;52.292;13.452;2023-09-07T05:28:13;16.50;99.90
21612;DHT22;47005;52.292;13.452;2023-09-07T05:30:39;16.40;99.90
21612;DHT22;47005;52.292;13.452;2023-09-07T05:33:04;16.40;99.90
21612;DHT22;47005;52.292;13.452;2023-09-07T05:35:30;16.50;99.90
21612;DHT22;47005;52.292;13.452;2023-09-07T05:37:58;16.50;99.90
21612;DHT22;47005;52.292;13.452;2023-09-07T05:40:24;16.50;99.90
21612;DHT22;47005;52.292;13.452;2023-09-07T05:42:49;16.50;99.90
21612;DHT22;47005;52.292;13.452;2023-09-07T05:45:15;16.50;99.90
21612;DHT22;47005;52.292;13.452;2023-09-07T05:47:41;16.50;99.90
21612;DHT22;47005;52.292;13.452;2023-09-07T05:50:07;16.60;99.90
21612;DHT22;47005;52.292;13.452;2023-09-07T05:52:32;16.60;99.90
21612;DHT22;47005;52.292;13.452;2023-09-07T05:54:58;16.60;99.90
21612;DHT22;47005;52.292;13.452;2023-09-07T05:57:24;16.60;99.90
21612;DHT22;47005;52.292;13.452;2023-09-07T05:59:49;16.70;99.90
21612;DHT22;47005;52.292;13.452;2023-09-07T06:02:15;16.70;99.90
21612;DHT22;47005;52.292;13.452;2023-09-07T06:04:40;16.70;99.90
21612;DHT22;47005;52.292;13.452;2023-09-07T06:07:06;16.70;99.90
21612;DHT22;47005;52.292;13.452;2023-09-07T06:09:32;16.70;99.90
21612;DHT22;47005;52.292;13.452;2023-09-07T06:11:57;16.80;99.90
21612;DHT22;47005;52.292;13.452;2023-09-07T06:14:23;16.80;99.90
21612;DHT22;47005;52.292;13.452;2023-09-07T06:16:48;16.80;99.90
21612;DHT22;47005;52.292;13.452;2023-09-07T06:19:14;16.90;99.90
21612;DHT22;47005;52.292;13.452;2023-09-07T06:21:40;16.90;99.90
21612;DHT22;47005;52.292;13.452;2023-09-07T06:24:06;16.90;99.90
21612;DHT22;47005;52.292;13.452;2023-09-07T06:26:32;16.90;99.90
21612;DHT22;47005;52.292;13.452;2023-09-07T06:28:58;17.00;99.90
21612;DHT22;47005;52.292;13.452;2023-09-07T06:31:23;17.00;99.90
21612;DHT22;47005;52.292;13.452;2023-09-07T06:33:49;17.00;99.90
21612;DHT22;47005;52.292;13.452;2023-09-07T06:36:14;17.00;99.90
21612;DHT22;47005;52.292;13.452;2023-09-07T06:38:40;17.10;99.90
21612;DHT22;47005;52.292;13.452;2023-09-07T06:41:06;17.10;99.90
21612;DHT22;47005;52.292;13.452;2023-09-07T06:43:33;17.20;99.90
21612;DHT22;47005;52.292;13.452;2023-09-07T06:46:16;17.20;99.90
21612;DHT22;47005;52.292;13.452;2023-09-07T06:48:42;17.30;99.90
21612;DHT22;47005;52.292;13.452;2023-09-07T06:51:08;17.30;99.90
21612;DHT22;47005;52.292;13.452;2023-09-07T06:53:34;17.40;99.90
21612;DHT22;47005;52.292;13.452;2023-09-07T06:56:01;17.40;99.90
21612;DHT22;47005;52.292;13.452;2023-09-07T06:58:27;17.40;99.90
21612;DHT22;47005;52.292;13.452;2023-09-07T07:00:57;17.50;99.90
21612;DHT22;47005;52.292;13.452;2023-09-07T07:03:26;17.50;99.90
21612;DHT22;47005;52.292;13.452;2023-09-07T07:05:52;17.60;99.90
21612;DHT22;47005;52.292;13.452;2023-09-07T07:08:17;17.60;99.90
21612;DHT22;47005;52.292;13.452;2023-09-07T07:10:43;17.70;99.90
21612;DHT22;47005;52.292;13.452;2023-09-07T07:13:09;17.70;99.90
21612;DHT22;47005;52.292;13.452;2023-09-07T07:15:35;17.80;99.90
21612;DHT22;47005;52.292;13.452;2023-09-07T07:18:01;17.80;99.90
21612;DHT22;47005;52.292;13.452;2023-09-07T07:20:27;17.90;99.90
21612;DHT22;47005;52.292;13.452;2023-09-07T07:22:52;17.90;99.90
21612;DHT22;47005;52.292;13.452;2023-09-07T07:25:18;18.00;99.90
21612;DHT22;47005;52.292;13.452;2023-09-07T07:27:44;18.00;99.90
21612;DHT22;47005;52.292;13.452;2023-09-07T07:30:11;18.10;99.90
21612;DHT22;47005;52.292;13.452;2023-09-07T07:32:37;18.10;99.90
21612;DHT22;47005;52.292;13.452;2023-09-07T07:35:02;18.20;99.90
21612;DHT22;47005;52.292;13.452;2023-09-07T07:37:28;18.20;99.90
21612;DHT22;47005;52.292;13.452;2023-09-07T07:39:54;18.30;99.90
21612;DHT22;47005;52.292;13.452;2023-09-07T07:42:20;18.30;99.90
21612;DHT22;47005;52.292;13.452;2023-09-07T07:44:46;18.40;99.90
21612;DHT22;47005;52.292;13.452;2023-09-07T07:47:11;18.40;99.90
21612;DHT22;47005;52.292;13.452;2023-09-07T07:49:37;18.50;99.90
21612;DHT22;47005;52.292;13.452;2023-09-07T07:52:03;18.50;99.90
21612;DHT22;47005;52.292;13.452;2023-09-07T07:54:28;18.60;99.90
21612;DHT22;47005;52.292;13.452;2023-09-07T07:56:54;18.60;99.90
21612;DHT22;47005;52.292;13.452;2023-09-07T07:59:20;18.70;99.90
21612;DHT22;47005;52.292;13.452;2023-09-07T08:01:45;18.80;99.90
21612;DHT22;47005;52.292;13.452;2023-09-07T08:04:12;18.80;99.90
21612;DHT22;47005;52.292;13.452;2023-09-07T08:06:37;18.90;99.90
21612;DHT22;47005;52.292;13.452;2023-09-07T08:09:03;18.90;99.90
21612;DHT22;47005;52.292;13.452;2023-09-07T08:11:29;18.90;99.90
21612;DHT22;47005;52.292;13.452;2023-09-07T08:13:54;19.00;99.90
21612;DHT22;47005;52.292;13.452;2023-09-07T08:16:20;19.10;99.90
21612;DHT22;47005;52.292;13.452;2023-09-07T08:18:46;19.10;99.90
21612;DHT22;47005;52.292;13.452;2023-09-07T08:21:14;19.20;99.90
21612;DHT22;47005;52.292;13.452;2023-09-07T08:23:39;19.20;99.90
21612;DHT22;47005;52.292;13.452;2023-09-07T08:26:05;19.30;99.90
21612;DHT22;47005;52.292;13.452;2023-09-07T08:28:31;19.30;99.90
21612;DHT22;47005;52.292;13.452;2023-09-07T08:30:57;19.40;99.90
21612;DHT22;47005;52.292;13.452;2023-09-07T08:33:24;19.40;99.90
21612;DHT22;47005;52.292;13.452;2023-09-07T08:35:58;19.50;99.90
21612;DHT22;47005;52.292;13.452;2023-09-07T08:38:26;19.60;99.90
21612;DHT22;47005;52.292;13.452;2023-09-07T08:40:55;19.60;99.90
21612;DHT22;47005;52.292;13.452;2023-09-07T08:43:25;19.70;99.90
21612;DHT22;47005;52.292;13.452;2023-09-07T08:45:58;19.70;99.90
21612;DHT22;47005;52.292;13.452;2023-09-07T08:48:30;19.80;99.90
21612;DHT22;47005;52.292;13.452;2023-09-07T08:50:56;19.90;99.90
21612;DHT22;47005;52.292;13.452;2023-09-07T08:53:22;19.90;99.90
21612;DHT22;47005;52.292;13.452;2023-09-07T08:55:48;20.00;99.90
21612;DHT22;47005;52.292;13.452;2023-09-07T08:58:14;20.00;99.90
21612;DHT22;47005;52.292;13.452;2023-09-07T09:00:41;20.10;99.90
21612;DHT22;47005;52.292;13.452;2023-09-07T09:03:09;20.20;99.90
21612;DHT22;47005;52.292;13.452;2023-09-07T09:05:40;20.20;99.90
21612;DHT22;47005;52.292;13.452;2023-09-07T09:08:06;20.30;99.90
21612;DHT22;47005;52.292;13.452;2023-09-07T09:10:32;20.30;99.90
21612;DHT22;47005;52.292;13.452;2023-09-07T09:12:58;20.40;99.90
21612;DHT22;47005;52.292;13.452;2023-09-07T09:15:26;20.40;99.90
21612;DHT22;47005;52.292;13.452;2023-09-07T09:17:53;20.50;99.90
21612;DHT22;47005;52.292;13.452;2023-09-07T09:20:22;20.50;99.90
21612;DHT22;47005;52.292;13.452;2023-09-07T09:22:53;20.60;99.90
21612;DHT22;47005;52.292;13.452;2023-09-07T09:25:19;20.60;99.70
21612;DHT22;47005;52.292;13.452;2023-09-07T09:27:46;20.70;99.90
21612;DHT22;47005;52.292;13.452;2023-09-07T09:30:12;20.70;99.90
21612;DHT22;47005;52.292;13.452;2023-09-07T09:32:40;20.80;99.60
21612;DHT22;47005;52.292;13.452;2023-09-07T09:35:07;20.80;99.80
21612;DHT22;47005;52.292;13.452;2023-09-07T09:37:33;20.90;99.70
21612;DHT22;47005;52.292;13.452;2023-09-07T09:40:00;20.90;99.10
21612;DHT22;47005;52.292;13.452;2023-09-07T09:42:27;21.00;99.60
21612;DHT22;47005;52.292;13.452;2023-09-07T09:44:54;21.00;99.20
21612;DHT22;47005;52.292;13.452;2023-09-07T09:47:21;21.10;99.30
21612;DHT22;47005;52.292;13.452;2023-09-07T09:49:48;21.20;99.00
21612;DHT22;47005;52.292;13.452;2023-09-07T09:52:15;21.20;99.30
21612;DHT22;47005;52.292;13.452;2023-09-07T09:54:42;21.20;99.00
21612;DHT22;47005;52.292;13.452;2023-09-07T09:57:08;21.30;98.60
21612;DHT22;47005;52.292;13.452;2023-09-07T09:59:34;21.30;98.50
21612;DHT22;47005;52.292;13.452;2023-09-07T10:02:00;21.40;98.40
21612;DHT22;47005;52.292;13.452;2023-09-07T10:04:28;21.40;97.80
21612;DHT22;47005;52.292;13.452;2023-09-07T10:07:05;21.50;97.70
21612;DHT22;47005;52.292;13.452;2023-09-07T10:09:34;21.50;97.80
21612;DHT22;47005;52.292;13.452;2023-09-07T10:12:02;21.60;97.40
21612;DHT22;47005;52.292;13.452;2023-09-07T10:14:39;21.60;97.20
21612;DHT22;47005;52.292;13.452;2023-09-07T10:17:06;21.60;97.10
21612;DHT22;47005;52.292;13.452;2023-09-07T10:19:32;21.70;97.40
21612;DHT22;47005;52.292;13.452;2023-09-07T10:21:59;21.80;97.10
21612;DHT22;47005;52.292;13.452;2023-09-07T10:24:33;21.80;96.70
21612;DHT22;47005;52.292;13.452;2023-09-07T10:27:05;21.80;96.00
21612;DHT22;47005;52.292;13.452;2023-09-07T10:29:50;21.90;96.10
21612;DHT22;47005;52.292;13.452;2023-09-07T10:32:17;21.90;96.80
21612;DHT22;47005;52.292;13.452;2023-09-07T10:34:43;22.00;96.00
21612;DHT22;47005;52.292;13.452;2023-09-07T10:37:18;22.10;96.50
21612;DHT22;47005;52.292;13.452;2023-09-07T10:39:45;22.10;96.30
21612;DHT22;47005;52.292;13.452;2023-09-07T10:42:24;22.10;96.30
21612;DHT22;47005;52.292;13.452;2023-09-07T10:44:50;22.20;95.70
21612;DHT22;47005;52.292;13.452;2023-09-07T10:47:15;22.20;95.50
21612;DHT22;47005;52.292;13.452;2023-09-07T10:49:41;22.20;95.70
21612;DHT22;47005;52.292;13.452;2023-09-07T10:52:08;22.30;95.00
21612;DHT22;47005;52.292;13.452;2023-09-07T10:54:34;22.30;95.70
21612;DHT22;47005;52.292;13.452;2023-09-07T10:57:08;22.30;95.80
21612;DHT22;47005;52.292;13.452;2023-09-07T10:59:34;22.30;95.70
21612;DHT22;47005;52.292;13.452;2023-09-07T11:02:06;22.40;94.80
21612;DHT22;47005;52.292;13.452;2023-09-07T11:04:32;22.40;95.00
21612;DHT22;47005;52.292;13.452;2023-09-07T11:06:58;22.50;94.70
21612;DHT22;47005;52.292;13.452;2023-09-07T11:09:24;22.50;94.80
21612;DHT22;47005;52.292;13.452;2023-09-07T11:11:49;22.50;95.10
21612;DHT22;47005;52.292;13.452;2023-09-07T11:14:15;22.50;94.60
21612;DHT22;47005;52.292;13.452;2023-09-07T11:16:41;22.60;94.10
21612;DHT22;47005;52.292;13.452;2023-09-07T11:19:08;22.60;94.40
21612;DHT22;47005;52.292;13.452;2023-09-07T11:21:34;22.60;92.60
21612;DHT22;47005;52.292;13.452;2023-09-07T11:24:01;22.70;93.00
21612;DHT22;47005;52.292;13.452;2023-09-07T11:26:40;22.70;92.90
21612;DHT22;47005;52.292;13.452;2023-09-07T11:29:06;22.80;92.00
21612;DHT22;47005;52.292;13.452;2023-09-07T11:31:31;22.80;92.40
21612;DHT22;47005;52.292;13.452;2023-09-07T11:33:57;22.80;92.60
21612;DHT22;47005;52.292;13.452;2023-09-07T11:36:23;22.90;92.30
21612;DHT22;47005;52.292;13.452;2023-09-07T11:38:50;22.90;92.10
21612;DHT22;47005;52.292;13.452;2023-09-07T11:41:15;22.90;92.20
21612;DHT22;47005;52.292;13.452;2023-09-07T11:43:41;23.00;91.70
21612;DHT22;47005;52.292;13.452;2023-09-07T11:46:07;23.00;92.20
21612;DHT22;47005;52.292;13.452;2023-09-07T11:48:33;23.10;91.50
21612;DHT22;47005;52.292;13.452;2023-09-07T11:51:00;23.10;92.10
21612;DHT22;47005;52.292;13.452;2023-09-07T11:53:26;23.10;92.40
21612;DHT22;47005;52.292;13.452;2023-09-07T11:55:51;23.10;91.80
21612;DHT22;47005;52.292;13.452;2023-09-07T11:58:17;23.20;91.70
21612;DHT22;47005;52.292;13.452;2023-09-07T12:00:43;23.20;91.90
21612;DHT22;47005;52.292;13.452;2023-09-07T12:03:08;23.20;91.80
21612;DHT22;47005;52.292;13.452;2023-09-07T12:05:34;23.20;90.90
21612;DHT22;47005;52.292;13.452;2023-09-07T12:08:01;23.20;91.40
21612;DHT22;47005;52.292;13.452;2023-09-07T12:10:27;23.30;91.70
21612;DHT22;47005;52.292;13.452;2023-09-07T12:12:52;23.30;91.30
21612;DHT22;47005;52.292;13.452;2023-09-07T12:15:18;23.30;91.20
21612;DHT22;47005;52.292;13.452;2023-09-07T12:17:43;23.30;91.30
21612;DHT22;47005;52.292;13.452;2023-09-07T12:20:09;23.40;90.80
21612;DHT22;47005;52.292;13.452;2023-09-07T12:22:39;23.40;91.00
21612;DHT22;47005;52.292;13.452;2023-09-07T12:25:05;23.40;91.30
21612;DHT22;47005;52.292;13.452;2023-09-07T12:27:36;23.40;90.70
21612;DHT22;47005;52.292;13.452;2023-09-07T12:30:02;23.50;90.80
21612;DHT22;47005;52.292;13.452;2023-09-07T12:32:32;23.50;91.10
21612;DHT22;47005;52.292;13.452;2023-09-07T12:34:57;23.50;90.80
21612;DHT22;47005;52.292;13.452;2023-09-07T12:37:23;23.50;90.40
21612;DHT22;47005;52.292;13.452;2023-09-07T12:39:50;23.60;90.50
21612;DHT22;47005;52.292;13.452;2023-09-07T12:42:16;23.60;90.60
21612;DHT22;47005;52.292;13.452;2023-09-07T12:44:43;23.60;90.10
21612;DHT22;47005;52.292;13.452;2023-09-07T12:47:09;23.60;89.70
21612;DHT22;47005;52.292;13.452;2023-09-07T12:49:34;23.60;90.20
21612;DHT22;47005;52.292;13.452;2023-09-07T12:52:00;23.70;90.40
21612;DHT22;47005;52.292;13.452;2023-09-07T12:54:25;23.80;89.70
21612;DHT22;47005;52.292;13.452;2023-09-07T12:56:51;23.80;90.30
21612;DHT22;47005;52.292;13.452;2023-09-07T12:59:17;23.80;90.10
21612;DHT22;47005;52.292;13.452;2023-09-07T13:01:43;23.80;90.30
21612;DHT22;47005;52.292;13.452;2023-09-07T13:04:09;23.90;90.40
21612;DHT22;47005;52.292;13.452;2023-09-07T13:06:37;23.90;89.80
21612;DHT22;47005;52.292;13.452;2023-09-07T13:09:03;23.90;90.40
21612;DHT22;47005;52.292;13.452;2023-09-07T13:11:30;24.00;90.00
21612;DHT22;47005;52.292;13.452;2023-09-07T13:13:56;24.00;90.00
21612;DHT22;47005;52.292;13.452;2023-09-07T13:16:21;24.10;89.60
21612;DHT22;47005;52.292;13.452;2023-09-07T13:18:47;24.20;89.70
21612;DHT22;47005;52.292;13.452;2023-09-07T13:21:13;24.20;89.10
21612;DHT22;47005;52.292;13.452;2023-09-07T13:23:38;24.20;89.70
21612;DHT22;47005;52.292;13.452;2023-09-07T13:26:04;24.30;89.70
21612;DHT22;47005;52.292;13.452;2023-09-07T13:28:29;24.30;88.60
21612;DHT22;47005;52.292;13.452;2023-09-07T13:30:55;24.30;90.00
21612;DHT22;47005;52.292;13.452;2023-09-07T13:33:21;24.40;88.40
21612;DHT22;47005;52.292;13.452;2023-09-07T13:35:46;24.40;88.70
21612;DHT22;47005;52.292;13.452;2023-09-07T13:38:12;24.40;89.10
21612;DHT22;47005;52.292;13.452;2023-09-07T13:40:38;24.50;89.60
21612;DHT22;47005;52.292;13.452;2023-09-07T13:43:04;24.50;89.30
21612;DHT22;47005;52.292;13.452;2023-09-07T13:45:30;24.50;88.20
21612;DHT22;47005;52.292;13.452;2023-09-07T13:47:56;24.50;88.50
21612;DHT22;47005;52.292;13.452;2023-09-07T13:50:22;24.50;86.10
21612;DHT22;47005;52.292;13.452;2023-09-07T13:52:48;24.50;86.50
21612;DHT22;47005;52.292;13.452;2023-09-07T13:55:14;24.50;87.50
21612;DHT22;47005;52.292;13.452;2023-09-07T13:57:40;24.50;87.30
21612;DHT22;47005;52.292;13.452;2023-09-07T14:00:06;24.50;86.10
21612;DHT22;47005;52.292;13.452;2023-09-07T14:02:32;24.50;86.90
21612;DHT22;47005;52.292;13.452;2023-09-07T14:05:00;24.50;86.90
21612;DHT22;47005;52.292;13.452;2023-09-07T14:07:26;24.50;86.90
21612;DHT22;47005;52.292;13.452;2023-09-07T14:09:53;24.50;86.60
21612;DHT22;47005;52.292;13.452;2023-09-07T14:12:19;24.60;86.60
21612;DHT22;47005;52.292;13.452;2023-09-07T14:14:44;24.60;86.90
21612;DHT22;47005;52.292;13.452;2023-09-07T14:17:10;24.60;87.10
21612;DHT22;47005;52.292;13.452;2023-09-07T14:19:36;24.60;87.30
21612;DHT22;47005;52.292;13.452;2023-09-07T14:22:01;24.60;86.00
21612;DHT22;47005;52.292;13.452;2023-09-07T14:24:27;24.60;87.70
21612;DHT22;47005;52.292;13.452;2023-09-07T14:26:53;24.70;87.50
21612;DHT22;47005;52.292;13.452;2023-09-07T14:29:18;24.70;87.80
21612;DHT22;47005;52.292;13.452;2023-09-07T14:31:44;24.70;85.80
21612;DHT22;47005;52.292;13.452;2023-09-07T14:34:11;24.70;85.20
21612;DHT22;47005;52.292;13.452;2023-09-07T14:36:37;24.70;85.50
21612;DHT22;47005;52.292;13.452;2023-09-07T14:39:05;24.70;86.10
21612;DHT22;47005;52.292;13.452;2023-09-07T14:41:32;24.70;86.10
21612;DHT22;47005;52.292;13.452;2023-09-07T14:43:59;24.70;86.90
21612;DHT22;47005;52.292;13.452;2023-09-07T14:46:25;24.70;85.90
21612;DHT22;47005;52.292;13.452;2023-09-07T14:48:54;24.70;84.70
21612;DHT22;47005;52.292;13.452;2023-09-07T14:51:19;24.70;82.40
21612;DHT22;47005;52.292;13.452;2023-09-07T14:53:45;24.70;85.20
21612;DHT22;47005;52.292;13.452;2023-09-07T14:56:12;24.70;85.00
21612;DHT22;47005;52.292;13.452;2023-09-07T14:58:37;24.70;84.70
21612;DHT22;47005;52.292;13.452;2023-09-07T15:01:03;24.70;85.00
21612;DHT22;47005;52.292;13.452;2023-09-07T15:03:29;24.70;84.00
21612;DHT22;47005;52.292;13.452;2023-09-07T15:05:55;24.70;84.30
21612;DHT22;47005;52.292;13.452;2023-09-07T15:08:21;24.70;84.80
21612;DHT22;47005;52.292;13.452;2023-09-07T15:10:47;24.70;84.60